createdAt,value
2023-01-03T00:00:47.490Z,37.40
2023-01-03T00:03:33.505Z,41.70
2023-01-03T00:06:27.301Z,41.23
2023-01-03T00:09:16.175Z,41.67
2023-01-03T00:12:01.413Z,41.53
2023-01-03T00:14:46.635Z,43.87
2023-01-03T00:17:31.554Z,39.03
2023-01-03T00:20:16.533Z,42.23
2023-01-03T00:23:01.585Z,43.13
2023-01-03T00:25:46.828Z,45.43
2023-01-03T00:28:32.199Z,43.33
2023-01-03T00:31:17.525Z,45.67
2023-01-03T00:34:03.029Z,42.10
2023-01-03T00:36:48.221Z,42.90
2023-01-03T00:39:33.697Z,44.90
2023-01-03T00:42:19.209Z,44.57
2023-01-03T00:45:04.554Z,46.00
2023-01-03T00:47:49.436Z,41.53
2023-01-03T00:50:37.722Z,45.60
2023-01-03T00:53:23.951Z,45.53
2023-01-03T00:56:12.333Z,45.40
2023-01-03T00:58:57.947Z,41.00
2023-01-03T01:01:47.441Z,45.90
2023-01-03T01:04:33.052Z,46.37
2023-01-03T01:07:18.658Z,49.83
2023-01-03T01:10:04.364Z,44.53
2023-01-03T01:12:49.423Z,46.23
2023-01-03T01:15:34.467Z,41.90
2023-01-03T01:18:19.828Z,48.93
2023-01-03T01:21:06.489Z,44.33
2023-01-03T01:23:52.054Z,47.47
2023-01-03T01:26:37.707Z,47.40
2023-01-03T01:29:22.753Z,45.77
2023-01-03T01:32:07.804Z,47.20
2023-01-03T01:34:53.200Z,51.97
2023-01-03T01:37:38.037Z,51.33
2023-01-03T01:40:22.888Z,49.20
2023-01-03T01:43:20.675Z,46.30
2023-01-03T01:46:28.048Z,50.33
2023-01-03T01:49:20.599Z,45.90
2023-01-03T01:52:06.451Z,49.57
2023-01-03T01:54:53.674Z,49.27
2023-01-03T01:57:40.766Z,45.40
2023-01-03T02:00:25.837Z,46.10
2023-01-03T02:03:12.437Z,47.47
2023-01-03T02:06:00.527Z,44.83
2023-01-03T02:08:45.754Z,43.47
2023-01-03T02:11:58.093Z,48.67
2023-01-03T02:15:20.804Z,44.40
2023-01-03T02:18:21.514Z,44.63
2023-01-03T02:21:37.159Z,45.80
2023-01-03T02:24:41.091Z,48.00
2023-01-03T02:28:05.483Z,46.53
2023-01-03T02:31:25.185Z,41.83
2023-01-03T02:34:40.486Z,48.93
2023-01-03T02:37:39.671Z,44.80
2023-01-03T02:40:44.001Z,43.73
2023-01-03T02:43:50.796Z,44.13
2023-01-03T02:47:14.933Z,43.93
2023-01-03T02:50:04.285Z,44.77
2023-01-03T02:52:52.955Z,43.83
2023-01-03T02:55:39.043Z,45.63
2023-01-03T02:58:28.395Z,51.23
2023-01-03T03:01:16.488Z,45.43
2023-01-03T03:04:03.193Z,47.17
2023-01-03T03:07:21.513Z,54.37
2023-01-03T03:10:08.786Z,52.87
2023-01-03T03:12:59.677Z,55.57
2023-01-03T03:15:54.828Z,52.53
2023-01-03T03:18:58.649Z,55.80
2023-01-03T03:21:43.953Z,51.67
2023-01-03T03:24:30.799Z,62.37
2023-01-03T03:27:20.244Z,54.80
2023-01-03T03:30:12.037Z,58.83
2023-01-03T03:33:00.227Z,59.83
2023-01-03T03:35:50.791Z,55.87
2023-01-03T03:38:42.936Z,56.47
2023-01-03T03:41:45.069Z,55.87
2023-01-03T03:44:40.065Z,55.10
2023-01-03T03:47:52.353Z,63.47
2023-01-03T03:50:49.708Z,56.43
2023-01-03T03:53:37.328Z,52.90
2023-01-03T03:56:26.324Z,55.30
2023-01-03T03:59:12.145Z,61.87
2023-01-03T04:01:59.529Z,57.10
2023-01-03T04:04:48.296Z,55.97
2023-01-03T04:07:34.791Z,58.57
2023-01-03T04:10:21.083Z,56.10
2023-01-03T04:13:06.292Z,55.13
2023-01-03T04:15:50.986Z,54.60
2023-01-03T04:18:35.817Z,53.67
2023-01-03T04:21:21.329Z,51.43
2023-01-03T04:24:07.151Z,51.80
2023-01-03T04:26:52.144Z,53.70
2023-01-03T04:29:39.602Z,51.43
2023-01-03T04:32:24.766Z,47.73
2023-01-03T04:35:10.047Z,48.70
2023-01-03T04:37:55.500Z,47.17
2023-01-03T04:40:40.773Z,49.83
2023-01-03T04:43:25.604Z,51.60
2023-01-03T04:46:11.255Z,52.40
2023-01-03T04:48:56.666Z,47.13
2023-01-03T04:51:42.313Z,52.40
2023-01-03T04:54:27.608Z,48.60
2023-01-03T04:57:12.533Z,47.67
2023-01-03T04:59:57.419Z,52.20
2023-01-03T05:02:42.362Z,46.87
2023-01-03T05:05:27.240Z,50.00
2023-01-03T05:08:12.276Z,50.07
2023-01-03T05:10:57.520Z,46.97
2023-01-03T05:13:42.959Z,50.27
2023-01-03T05:16:27.924Z,49.97
2023-01-03T05:19:13.599Z,48.17
2023-01-03T05:21:58.567Z,47.03
2023-01-03T05:24:44.058Z,48.30
2023-01-03T05:27:29.188Z,48.53
2023-01-03T05:30:14.325Z,46.37
2023-01-03T05:32:59.242Z,46.97
2023-01-03T05:35:47.841Z,50.43
2023-01-03T05:38:33.318Z,47.87
2023-01-03T05:41:18.481Z,49.53
2023-01-03T05:44:03.580Z,48.57
2023-01-03T05:46:49.139Z,45.60
2023-01-03T05:49:34.168Z,51.03
2023-01-03T05:52:19.224Z,48.70
2023-01-03T05:55:04.718Z,44.60
2023-01-03T05:57:49.868Z,46.77
2023-01-03T06:00:35.392Z,45.13
2023-01-03T06:03:20.585Z,45.70
2023-01-03T06:06:07.110Z,47.37
2023-01-03T06:08:52.569Z,41.17
2023-01-03T06:11:39.774Z,43.53
2023-01-03T06:14:24.927Z,44.83
2023-01-03T06:17:09.851Z,42.60
2023-01-03T06:19:55.281Z,47.07
2023-01-03T06:22:40.250Z,44.53
2023-01-03T06:25:26.020Z,47.17
2023-01-03T06:28:10.933Z,46.57
2023-01-03T06:30:55.775Z,44.37
2023-01-03T06:33:41.418Z,43.93
2023-01-03T06:36:26.871Z,44.80
2023-01-03T06:39:12.055Z,41.67
2023-01-03T06:41:57.238Z,43.27
2023-01-03T06:44:42.196Z,46.13
2023-01-03T06:47:27.588Z,44.40
2023-01-03T06:50:12.960Z,42.07
2023-01-03T06:52:57.971Z,48.50
2023-01-03T06:55:44.490Z,42.53
2023-01-03T06:58:30.069Z,45.50
2023-01-03T07:01:15.438Z,47.60
2023-01-03T07:04:02.467Z,46.50
2023-01-03T07:06:48.031Z,46.27
2023-01-03T07:09:32.972Z,40.20
2023-01-03T07:12:20.869Z,41.07
2023-01-03T07:15:06.205Z,44.17
2023-01-03T07:17:50.891Z,44.63
2023-01-03T07:20:35.869Z,42.87
2023-01-03T07:23:21.116Z,48.00
2023-01-03T07:26:06.309Z,43.13
2023-01-03T07:28:52.513Z,42.97
2023-01-03T07:31:41.715Z,45.73
2023-01-03T07:34:26.982Z,44.67
2023-01-03T07:37:12.298Z,44.70
2023-01-03T07:39:57.493Z,51.23
2023-01-03T07:42:42.388Z,45.37
2023-01-03T07:45:27.263Z,54.77
2023-01-03T07:48:13.310Z,51.07
2023-01-03T07:50:58.976Z,48.33
2023-01-03T07:53:44.461Z,44.97
2023-01-03T07:56:29.757Z,45.97
2023-01-03T07:59:15.561Z,42.63
2023-01-03T08:02:00.857Z,46.30
2023-01-03T08:04:46.446Z,48.00
2023-01-03T08:07:31.792Z,49.20
2023-01-03T08:10:18.089Z,44.90
2023-01-03T08:13:03.733Z,46.70
2023-01-03T08:15:56.637Z,45.33
2023-01-03T08:18:42.683Z,47.87
2023-01-03T08:21:27.866Z,47.83
2023-01-03T08:24:12.799Z,47.30
2023-01-03T08:26:58.188Z,51.00
2023-01-03T08:29:45.645Z,45.13
2023-01-03T08:32:33.716Z,43.40
2023-01-03T08:35:19.853Z,48.07
2023-01-03T08:38:08.388Z,44.70
2023-01-03T08:40:54.832Z,45.47
2023-01-03T08:43:44.245Z,41.93
2023-01-03T08:46:30.413Z,43.80
2023-01-03T08:49:15.836Z,40.50
2023-01-03T08:52:01.142Z,38.27
2023-01-03T08:54:46.514Z,42.30
2023-01-03T08:57:31.610Z,41.93
2023-01-03T09:00:17.001Z,39.93
2023-01-03T09:03:02.212Z,38.90
2023-01-03T09:05:47.542Z,39.83
2023-01-03T09:08:34.443Z,36.53
2023-01-03T09:11:19.283Z,39.50
2023-01-03T09:14:04.755Z,34.07
2023-01-03T09:16:50.184Z,41.03
2023-01-03T09:19:35.620Z,33.57
2023-01-03T09:22:20.521Z,35.10
2023-01-03T09:25:05.684Z,34.63
2023-01-03T09:27:50.921Z,34.23
2023-01-03T09:30:35.740Z,34.63
2023-01-03T09:33:21.543Z,32.20
2023-01-03T09:36:07.124Z,32.00
2023-01-03T09:38:52.051Z,30.67
2023-01-03T09:41:39.321Z,30.47
2023-01-03T09:44:24.440Z,27.67
2023-01-03T09:47:18.857Z,28.90
2023-01-03T09:50:29.627Z,30.37
2023-01-03T09:53:19.699Z,24.90
2023-01-03T09:56:04.875Z,27.33
2023-01-03T09:58:58.518Z,27.70
2023-01-03T10:01:59.282Z,27.07
2023-01-03T10:04:50.544Z,21.77
2023-01-03T10:07:54.280Z,24.10
2023-01-03T10:10:58.895Z,22.43
2023-01-03T10:14:05.475Z,21.07
2023-01-03T10:17:16.769Z,21.07
2023-01-03T10:20:04.969Z,21.97
2023-01-03T10:22:51.786Z,22.97
2023-01-03T10:25:40.835Z,19.93
2023-01-03T10:28:37.670Z,22.80
2023-01-03T10:31:29.363Z,23.43
2023-01-03T10:34:14.270Z,21.67
2023-01-03T10:36:59.201Z,23.63
2023-01-03T10:39:45.090Z,20.40
2023-01-03T10:42:34.079Z,18.83
2023-01-03T10:45:21.041Z,19.00
2023-01-03T10:48:06.417Z,17.20
2023-01-03T10:50:53.969Z,20.70
2023-01-03T10:53:42.081Z,17.93
2023-01-03T10:56:30.295Z,18.33
2023-01-03T10:59:22.516Z,19.03
2023-01-03T11:02:10.888Z,19.40
2023-01-03T11:05:10.667Z,19.83
2023-01-03T11:08:03.003Z,22.40
2023-01-03T11:10:50.027Z,21.90
2023-01-03T11:13:42.336Z,21.43
2023-01-03T11:16:32.117Z,18.33
2023-01-03T11:19:17.586Z,23.53
2023-01-03T11:22:20.075Z,21.97
2023-01-03T11:25:33.530Z,20.60
2023-01-03T11:28:18.438Z,19.63
2023-01-03T11:31:16.444Z,21.00
2023-01-03T11:34:23.415Z,19.83
2023-01-03T11:37:11.725Z,16.57
2023-01-03T11:40:33.821Z,18.27
2023-01-03T11:43:22.169Z,15.70
2023-01-03T11:46:22.832Z,17.17
2023-01-03T11:49:07.995Z,16.40
2023-01-03T11:51:56.530Z,15.17
2023-01-03T11:54:41.867Z,15.73
2023-01-03T11:57:51.852Z,15.77
2023-01-03T12:00:45.906Z,14.37
2023-01-03T12:03:49.617Z,16.60
2023-01-03T12:07:03.565Z,16.43
2023-01-03T12:10:11.332Z,15.07
2023-01-03T12:13:02.691Z,14.87
2023-01-03T12:16:01.842Z,20.93
2023-01-03T12:19:04.503Z,11.50
2023-01-03T12:22:01.534Z,10.43
2023-01-03T12:25:00.735Z,13.70
2023-01-03T12:28:11.114Z,12.73
2023-01-03T12:31:07.562Z,12.03
2023-01-03T12:34:10.960Z,10.37
2023-01-03T12:37:16.126Z,12.50
2023-01-03T12:40:42.834Z,8.17
2023-01-03T12:43:52.786Z,14.13
2023-01-03T12:46:44.398Z,10.00
2023-01-03T12:49:43.970Z,11.80
2023-01-03T12:52:32.843Z,16.00
2023-01-03T12:55:41.063Z,11.20
2023-01-03T12:58:38.901Z,9.10
2023-01-03T13:01:40.860Z,10.53
2023-01-03T13:04:28.818Z,11.90
2023-01-03T13:07:26.386Z,13.37
2023-01-03T13:10:19.344Z,9.40
2023-01-03T13:13:05.410Z,11.60
2023-01-03T13:15:50.614Z,8.87
2023-01-03T13:18:36.178Z,8.83
2023-01-03T13:22:09.837Z,11.73
2023-01-03T13:25:26.914Z,11.17
2023-01-03T13:28:18.506Z,12.40
2023-01-03T13:31:15.579Z,10.60
2023-01-03T13:34:25.394Z,14.07
2023-01-03T13:37:13.590Z,10.33
2023-01-03T13:40:03.827Z,15.30
2023-01-03T13:43:01.552Z,15.10
2023-01-03T13:45:46.695Z,11.57
2023-01-03T13:48:40.081Z,11.57
2023-01-03T13:51:27.246Z,13.83
2023-01-03T13:54:12.264Z,10.97
2023-01-03T13:57:03.414Z,12.10
2023-01-03T13:59:48.896Z,12.60
2023-01-03T14:02:34.053Z,9.80
2023-01-03T14:05:22.212Z,11.17
2023-01-03T14:08:20.991Z,12.27
2023-01-03T14:11:32.974Z,12.07
2023-01-03T14:14:24.114Z,12.33
2023-01-03T14:17:17.638Z,12.53
2023-01-03T14:20:10.425Z,16.37
2023-01-03T14:23:00.503Z,13.70
2023-01-03T14:25:46.169Z,12.60
2023-01-03T14:28:33.746Z,11.30
2023-01-03T14:31:23.064Z,11.37
2023-01-03T14:34:21.523Z,15.07
2023-01-03T14:37:12.941Z,14.43
2023-01-03T14:40:05.045Z,13.77
2023-01-03T14:42:50.448Z,16.97
2023-01-03T14:45:36.376Z,12.40
2023-01-03T14:48:22.924Z,12.53
2023-01-03T14:51:09.906Z,11.63
2023-01-03T14:53:56.468Z,12.27
2023-01-03T14:56:44.566Z,12.43
2023-01-03T14:59:31.942Z,15.03
2023-01-03T15:02:18.356Z,10.83
2023-01-03T15:05:03.791Z,10.23
2023-01-03T15:07:48.989Z,11.07
2023-01-03T15:10:44.387Z,16.20
2023-01-03T15:13:49.951Z,14.40
2023-01-03T15:16:41.268Z,12.53
2023-01-03T15:19:29.469Z,12.80
2023-01-03T15:22:20.235Z,17.53
2023-01-03T15:25:15.897Z,10.53
2023-01-03T15:28:22.744Z,13.93
2023-01-03T15:31:45.639Z,14.07
2023-01-03T15:34:33.748Z,14.87
2023-01-03T15:37:22.911Z,14.53
2023-01-03T15:40:10.649Z,15.13
2023-01-03T15:42:58.683Z,16.17
2023-01-03T15:45:44.107Z,16.80
2023-01-03T15:48:31.385Z,14.83
2023-01-03T15:51:16.470Z,14.37
2023-01-03T15:54:01.369Z,13.17
2023-01-03T15:56:59.844Z,14.77
2023-01-03T15:59:45.345Z,15.90
2023-01-03T16:02:31.657Z,13.50
2023-01-03T16:05:22.026Z,14.90
2023-01-03T16:08:34.378Z,14.73
2023-01-03T16:11:31.524Z,16.30
2023-01-03T16:14:23.021Z,15.47
2023-01-03T16:17:17.019Z,13.63
2023-01-03T16:20:04.482Z,14.97
2023-01-03T16:23:01.006Z,14.47
2023-01-03T16:25:47.146Z,14.47
2023-01-03T16:28:32.228Z,13.67
2023-01-03T16:31:31.209Z,15.40
2023-01-03T16:34:20.600Z,11.73
2023-01-03T16:37:08.834Z,13.47
2023-01-03T16:39:54.475Z,12.67
2023-01-03T16:42:39.271Z,13.43
2023-01-03T16:45:24.626Z,13.70
2023-01-03T16:48:16.512Z,14.10
2023-01-03T16:51:01.755Z,13.43
2023-01-03T16:53:48.070Z,11.10
2023-01-03T16:56:33.433Z,12.90
2023-01-03T16:59:20.591Z,13.63
2023-01-03T17:02:07.366Z,12.70
2023-01-03T17:04:52.939Z,16.27
2023-01-03T17:07:38.915Z,16.00
2023-01-03T17:10:34.329Z,17.83
2023-01-03T17:13:36.244Z,13.37
2023-01-03T17:16:21.529Z,16.40
2023-01-03T17:19:52.192Z,14.07
2023-01-03T17:22:22.350Z,16.57
2023-01-03T17:25:10.636Z,17.13
2023-01-03T17:27:58.360Z,15.53
2023-01-03T17:30:43.818Z,14.83
2023-01-03T17:33:34.075Z,12.70
2023-01-03T17:36:31.418Z,13.83
2023-01-03T17:39:17.146Z,13.57
2023-01-03T17:42:02.548Z,15.80
2023-01-03T17:44:49.207Z,13.80
2023-01-03T17:47:41.674Z,14.90
2023-01-03T17:50:29.655Z,12.47
2023-01-03T17:53:18.479Z,14.87
2023-01-03T17:56:03.474Z,17.33
2023-01-03T17:58:55.977Z,15.57
2023-01-03T18:01:41.999Z,17.43
2023-01-03T18:04:44.151Z,18.37
2023-01-03T18:07:32.148Z,20.33
2023-01-03T18:10:21.744Z,21.07
2023-01-03T18:13:19.093Z,18.53
2023-01-03T18:16:05.056Z,18.47
2023-01-03T18:18:51.223Z,20.37
2023-01-03T18:21:37.411Z,21.70
2023-01-03T18:24:29.079Z,23.40
2023-01-03T18:27:15.189Z,23.30
2023-01-03T18:30:03.136Z,21.93
2023-01-03T18:32:48.409Z,20.23
2023-01-03T18:35:38.033Z,22.07
2023-01-03T18:38:28.994Z,25.50
2023-01-03T18:41:25.555Z,24.37
2023-01-03T18:44:22.755Z,25.33
2023-01-03T18:47:13.815Z,26.20
2023-01-03T18:49:59.079Z,24.93
2023-01-03T18:52:45.305Z,22.63
2023-01-03T18:55:34.166Z,24.77
2023-01-03T18:58:34.814Z,23.77
2023-01-03T19:01:21.373Z,20.60
2023-01-03T19:04:08.140Z,20.67
2023-01-03T19:06:53.525Z,19.60
2023-01-03T19:09:38.851Z,17.57
2023-01-03T19:12:24.833Z,19.13
2023-01-03T19:15:21.556Z,17.40
2023-01-03T19:18:09.574Z,16.90
2023-01-03T19:20:54.834Z,17.77
2023-01-03T19:23:41.085Z,16.40
2023-01-03T19:26:38.296Z,18.67
2023-01-03T19:29:27.138Z,14.20
2023-01-03T19:32:19.166Z,17.57
2023-01-03T19:35:14.415Z,16.43
2023-01-03T19:37:59.469Z,16.10
2023-01-03T19:40:45.387Z,15.63
2023-01-03T19:43:30.971Z,15.23
2023-01-03T19:46:17.929Z,12.50
2023-01-03T19:49:03.200Z,12.27
2023-01-03T19:51:49.276Z,10.57
2023-01-03T19:54:34.514Z,12.30
2023-01-03T19:57:23.969Z,13.73
2023-01-03T20:00:17.057Z,16.43
2023-01-03T20:03:06.367Z,15.33
2023-01-03T20:05:54.004Z,13.83
2023-01-03T20:08:39.115Z,12.87
2023-01-03T20:11:24.311Z,14.50
2023-01-03T20:14:18.063Z,10.93
2023-01-03T20:17:03.289Z,10.63
2023-01-03T20:19:49.201Z,15.53
2023-01-03T20:25:40.584Z,13.57
2023-01-03T20:28:25.683Z,10.40
2023-01-03T20:31:14.019Z,11.53
2023-01-03T20:34:03.929Z,12.30
2023-01-03T20:36:49.294Z,8.70
2023-01-03T20:39:35.620Z,10.30
2023-01-03T20:42:21.298Z,11.23
2023-01-03T20:45:06.908Z,10.97
2023-01-03T20:47:52.508Z,12.93
2023-01-03T20:50:37.642Z,9.23
2023-01-03T20:53:26.590Z,13.67
2023-01-03T20:56:13.076Z,11.37
2023-01-03T20:58:58.132Z,12.07
2023-01-03T21:01:44.019Z,14.13
2023-01-03T21:04:29.634Z,10.30
2023-01-03T21:07:34.929Z,8.10
2023-01-03T21:10:26.639Z,15.23
2023-01-03T21:13:11.493Z,12.60
2023-01-03T21:15:57.106Z,11.23
2023-01-03T21:18:42.162Z,11.77
2023-01-03T21:21:30.107Z,12.90
2023-01-03T21:24:17.581Z,12.17
2023-01-03T21:27:02.552Z,10.03
2023-01-03T21:29:47.504Z,14.37
2023-01-03T21:32:32.306Z,11.20
2023-01-03T21:35:22.310Z,11.63
2023-01-03T21:38:09.952Z,14.60
2023-01-03T21:40:55.074Z,12.73
2023-01-03T21:43:39.883Z,13.07
2023-01-03T21:46:26.069Z,13.43
2023-01-03T21:49:11.361Z,13.30
2023-01-03T21:51:56.851Z,12.47
2023-01-03T21:54:42.176Z,9.57
2023-01-03T21:57:27.053Z,11.27
2023-01-03T22:00:12.795Z,13.20
2023-01-03T22:03:00.380Z,13.33
2023-01-03T22:05:45.982Z,14.70
2023-01-03T22:08:31.385Z,11.30
2023-01-03T22:11:16.657Z,12.43
2023-01-03T22:14:01.889Z,11.97
2023-01-03T22:16:47.367Z,10.93
2023-01-03T22:19:32.683Z,12.23
2023-01-03T22:22:17.693Z,11.00
2023-01-03T22:25:03.110Z,12.33
2023-01-03T22:27:48.811Z,13.03
2023-01-03T22:30:34.073Z,10.13
2023-01-03T22:33:19.054Z,10.30
2023-01-03T22:36:04.679Z,14.27
2023-01-03T22:38:52.413Z,12.47
2023-01-03T22:41:37.292Z,13.60
2023-01-03T22:44:22.190Z,10.13
2023-01-03T22:47:07.190Z,14.80
2023-01-03T22:49:52.087Z,12.00
2023-01-03T22:52:38.386Z,10.70
2023-01-03T22:55:30.003Z,8.97
2023-01-03T22:58:16.871Z,13.50
2023-01-03T23:01:10.553Z,10.70
2023-01-03T23:03:58.942Z,12.63
2023-01-03T23:06:44.091Z,13.30
2023-01-03T23:09:29.013Z,13.97
2023-01-03T23:12:13.974Z,14.27
2023-01-03T23:14:58.925Z,12.73
2023-01-03T23:17:44.367Z,11.33
2023-01-03T23:20:35.964Z,14.57
2023-01-03T23:23:21.067Z,13.03
2023-01-03T23:26:06.035Z,11.60
2023-01-03T23:28:59.029Z,12.03
2023-01-03T23:31:44.708Z,14.63
2023-01-03T23:34:29.984Z,12.50
2023-01-03T23:37:15.011Z,11.53
2023-01-03T23:40:00.194Z,12.57
2023-01-03T23:42:47.115Z,15.63
2023-01-03T23:45:32.452Z,14.80
2023-01-03T23:48:17.888Z,10.80
2023-01-03T23:51:09.535Z,9.43
2023-01-03T23:53:54.682Z,15.13
2023-01-03T23:56:39.815Z,12.17
2023-01-03T23:59:25.105Z,11.10
